createdAt,value
2023-04-08T00:00:16.236Z,67.98
2023-04-08T00:01:16.205Z,68.55
2023-04-08T00:02:16.241Z,68.17
2023-04-08T00:03:16.411Z,68.84
2023-04-08T00:04:16.227Z,69.02
2023-04-08T00:05:16.136Z,68.84
2023-04-08T00:06:16.204Z,68.84
2023-04-08T00:07:16.112Z,68.65
2023-04-08T00:08:16.112Z,68.55
2023-04-08T00:09:16.076Z,68.55
2023-04-08T00:10:16.064Z,68.65
2023-04-08T00:11:16.043Z,68.46
2023-04-08T00:12:16.034Z,68.55
2023-04-08T00:13:16.015Z,68.55
2023-04-08T00:14:15.994Z,68.65
2023-04-08T00:15:15.979Z,68.65
2023-04-08T00:16:16.010Z,68.74
2023-04-08T00:17:15.944Z,68.74
2023-04-08T00:18:15.936Z,68.46
2023-04-08T00:19:15.917Z,68.65
2023-04-08T00:20:15.924Z,68.55
2023-04-08T00:21:15.887Z,68.65
2023-04-08T00:22:15.870Z,68.74
2023-04-08T00:23:15.863Z,68.84
2023-04-08T00:24:15.842Z,68.65
2023-04-08T00:25:15.824Z,68.55
2023-04-08T00:26:15.811Z,69.02
2023-04-08T00:27:15.792Z,68.65
2023-04-08T00:28:15.778Z,68.65
2023-04-08T00:29:15.755Z,68.74
2023-04-08T00:30:15.766Z,68.65
2023-04-08T00:31:15.811Z,68.65
2023-04-08T00:32:15.712Z,68.74
2023-04-08T00:33:15.706Z,68.65
2023-04-08T00:34:15.699Z,68.46
2023-04-08T00:35:15.665Z,68.65
2023-04-08T00:36:15.662Z,68.46
2023-04-08T00:37:15.633Z,68.65
2023-04-08T00:38:15.616Z,68.74
2023-04-08T00:39:15.608Z,68.55
2023-04-08T00:40:15.591Z,68.55
2023-04-08T00:41:15.568Z,68.84
2023-04-08T00:42:15.554Z,68.65
2023-04-08T00:43:15.537Z,68.46
2023-04-08T00:44:15.522Z,69.18
2023-04-08T00:45:15.511Z,69.21
2023-04-08T00:46:15.527Z,69.21
2023-04-08T00:47:15.472Z,69.21
2023-04-08T00:48:15.469Z,69.21
2023-04-08T00:49:15.443Z,69.09
2023-04-08T00:50:15.447Z,68.71
2023-04-08T00:51:15.409Z,69.02
2023-04-08T00:52:15.407Z,68.71
2023-04-08T00:53:15.385Z,68.90
2023-04-08T00:54:15.362Z,68.71
2023-04-08T00:55:15.359Z,68.90
2023-04-08T00:56:15.345Z,69.37
2023-04-08T00:57:15.313Z,69.27
2023-04-08T00:58:15.302Z,69.21
2023-04-08T00:59:15.297Z,69.27
2023-04-08T01:00:15.273Z,69.27
2023-04-08T01:01:15.315Z,69.27
2023-04-08T01:02:15.407Z,69.31
2023-04-08T01:03:15.295Z,69.31
2023-04-08T01:04:15.308Z,69.02
2023-04-08T01:05:15.187Z,69.27
2023-04-08T01:06:15.174Z,69.12
2023-04-08T01:07:15.155Z,69.27
2023-04-08T01:08:15.149Z,69.37
2023-04-08T01:09:15.121Z,69.37
2023-04-08T01:10:15.112Z,69.09
2023-04-08T01:11:15.095Z,69.41
2023-04-08T01:12:15.078Z,69.41
2023-04-08T01:13:15.063Z,69.37
2023-04-08T01:14:15.043Z,69.37
2023-04-08T01:15:15.029Z,69.37
2023-04-08T01:16:15.027Z,69.41
2023-04-08T01:17:15.001Z,69.31
2023-04-08T01:18:14.984Z,69.31
2023-04-08T01:19:14.964Z,69.31
2023-04-08T01:20:14.958Z,69.27
2023-04-08T01:21:14.940Z,69.21
2023-04-08T01:22:14.921Z,69.27
2023-04-08T01:23:14.913Z,69.37
2023-04-08T01:24:14.894Z,69.50
2023-04-08T01:25:14.876Z,69.37
2023-04-08T01:26:14.868Z,69.37
2023-04-08T01:27:14.851Z,69.37
2023-04-08T01:28:14.823Z,69.41
2023-04-08T01:29:14.805Z,69.66
2023-04-08T01:30:14.815Z,69.50
2023-04-08T01:31:14.822Z,69.31
2023-04-08T01:32:14.759Z,69.41
2023-04-08T01:33:14.745Z,69.41
2023-04-08T01:34:14.730Z,69.46
2023-04-08T01:35:14.716Z,69.50
2023-04-08T01:36:14.700Z,69.37
2023-04-08T01:37:14.690Z,69.46
2023-04-08T01:38:14.665Z,69.56
2023-04-08T01:39:14.656Z,69.66
2023-04-08T01:40:14.655Z,69.46
2023-04-08T01:41:14.620Z,69.56
2023-04-08T01:42:14.604Z,69.46
2023-04-08T01:43:14.586Z,69.56
2023-04-08T01:44:14.571Z,69.56
2023-04-08T01:45:14.560Z,69.56
2023-04-08T01:46:14.599Z,69.46
2023-04-08T01:47:14.532Z,69.66
2023-04-08T01:48:14.511Z,69.56
2023-04-08T01:49:14.491Z,69.46
2023-04-08T01:50:14.477Z,69.37
2023-04-08T01:51:14.465Z,69.37
2023-04-08T01:52:14.452Z,69.46
2023-04-08T01:53:14.430Z,69.56
2023-04-08T01:54:14.671Z,69.46
2023-04-08T01:55:14.403Z,69.56
2023-04-08T01:56:14.394Z,69.56
2023-04-08T01:57:14.376Z,69.75
2023-04-08T01:58:14.348Z,69.56
2023-04-08T01:59:14.336Z,69.66
2023-04-08T02:00:14.340Z,69.46
2023-04-08T02:01:14.301Z,69.75
2023-04-08T02:02:14.330Z,69.56
2023-04-08T02:03:14.517Z,69.94
2023-04-08T02:04:14.395Z,69.46
2023-04-08T02:05:14.251Z,69.56
2023-04-08T02:06:14.248Z,69.46
2023-04-08T02:07:14.237Z,69.66
2023-04-08T02:08:14.202Z,69.66
2023-04-08T02:09:14.173Z,69.75
2023-04-08T02:10:14.179Z,69.66
2023-04-08T02:11:14.154Z,69.66
2023-04-08T02:12:14.128Z,69.66
2023-04-08T02:13:14.108Z,70.04
2023-04-08T02:14:14.101Z,69.94
2023-04-08T02:15:14.083Z,70.04
2023-04-08T02:16:14.078Z,69.75
2023-04-08T02:17:14.059Z,69.75
2023-04-08T02:18:14.081Z,70.32
2023-04-08T02:19:14.015Z,70.23
2023-04-08T02:20:14.012Z,70.13
2023-04-08T02:21:13.983Z,70.32
2023-04-08T02:22:13.965Z,70.51
2023-04-08T02:23:13.955Z,70.51
2023-04-08T02:24:13.961Z,70.42
2023-04-08T02:25:13.921Z,70.04
2023-04-08T02:26:13.902Z,70.79
2023-04-08T02:27:13.895Z,70.70
2023-04-08T02:28:13.899Z,70.29
2023-04-08T02:29:13.858Z,70.42
2023-04-08T02:30:13.841Z,70.79
2023-04-08T02:31:13.904Z,70.57
2023-04-08T02:32:13.810Z,70.51
2023-04-08T02:33:13.796Z,70.57
2023-04-08T02:34:13.774Z,70.57
2023-04-08T02:35:13.758Z,70.48
2023-04-08T02:36:13.742Z,70.86
2023-04-08T02:37:13.724Z,70.67
2023-04-08T02:38:13.727Z,71.23
2023-04-08T02:39:13.699Z,70.86
2023-04-08T02:40:13.684Z,70.86
2023-04-08T02:41:13.659Z,71.14
2023-04-08T02:42:13.646Z,70.95
2023-04-08T02:43:13.637Z,71.33
2023-04-08T02:44:13.616Z,71.20
2023-04-08T02:45:13.596Z,71.62
2023-04-08T02:46:13.722Z,71.39
2023-04-08T02:47:13.568Z,71.30
2023-04-08T02:48:13.550Z,71.39
2023-04-08T02:49:13.531Z,71.20
2023-04-08T02:50:13.526Z,71.11
2023-04-08T02:51:13.506Z,71.20
2023-04-08T02:52:13.487Z,71.20
2023-04-08T02:53:13.479Z,71.30
2023-04-08T02:54:13.449Z,71.11
2023-04-08T02:55:13.447Z,71.58
2023-04-08T02:56:13.477Z,71.20
2023-04-08T02:57:13.412Z,71.30
2023-04-08T02:58:13.389Z,70.92
2023-04-08T02:59:13.370Z,70.92
2023-04-08T03:00:13.363Z,71.01
2023-04-08T03:01:13.408Z,70.92
2023-04-08T03:02:13.384Z,70.73
2023-04-08T03:03:13.354Z,70.82
2023-04-08T03:04:13.285Z,70.82
2023-04-08T03:05:13.294Z,71.01
2023-04-08T03:06:13.253Z,70.92
2023-04-08T03:07:13.234Z,70.86
2023-04-08T03:08:13.219Z,71.01
2023-04-08T03:09:13.202Z,71.04
2023-04-08T03:10:13.932Z,71.23
2023-04-08T03:11:13.188Z,71.23
2023-04-08T03:12:13.156Z,70.86
2023-04-08T03:13:13.140Z,70.95
2023-04-08T03:14:13.135Z,70.76
2023-04-08T03:15:13.100Z,71.23
2023-04-08T03:16:13.113Z,70.48
2023-04-08T03:17:13.068Z,70.76
2023-04-08T03:18:13.056Z,70.76
2023-04-08T03:19:13.035Z,70.48
2023-04-08T03:20:13.034Z,70.38
2023-04-08T03:21:13.029Z,70.95
2023-04-08T03:22:12.988Z,70.67
2023-04-08T03:23:12.973Z,70.48
2023-04-08T03:24:12.955Z,70.76
2023-04-08T03:25:12.936Z,71.23
2023-04-08T03:26:12.924Z,70.95
2023-04-08T03:27:12.906Z,71.30
2023-04-08T03:28:12.893Z,71.48
2023-04-08T03:29:12.875Z,71.20
2023-04-08T03:30:12.858Z,71.30
2023-04-08T03:31:12.840Z,71.30
2023-04-08T03:32:12.832Z,71.30
2023-04-08T03:33:12.870Z,71.20
2023-04-08T03:34:12.797Z,71.20
2023-04-08T03:35:12.788Z,71.30
2023-04-08T03:36:12.764Z,71.01
2023-04-08T03:37:12.745Z,71.30
2023-04-08T03:38:12.728Z,71.30
2023-04-08T03:39:12.720Z,71.39
2023-04-08T03:40:12.705Z,71.48
2023-04-08T03:41:12.676Z,71.20
2023-04-08T03:42:12.665Z,71.20
2023-04-08T03:43:12.648Z,71.77
2023-04-08T03:44:12.626Z,71.11
2023-04-08T03:45:12.625Z,71.20
2023-04-08T03:46:12.670Z,71.39
2023-04-08T03:47:12.576Z,71.20
2023-04-08T03:48:12.565Z,71.30
2023-04-08T03:49:12.549Z,71.77
2023-04-08T03:50:12.529Z,71.30
2023-04-08T03:51:12.511Z,71.20
2023-04-08T03:52:12.506Z,71.39
2023-04-08T03:53:12.498Z,71.67
2023-04-08T03:54:12.461Z,71.77
2023-04-08T03:55:12.453Z,71.30
2023-04-08T03:56:12.435Z,71.67
2023-04-08T03:57:12.424Z,71.30
2023-04-08T03:58:12.395Z,71.20
2023-04-08T03:59:12.378Z,71.48
2023-04-08T04:00:12.367Z,71.30
2023-04-08T04:01:12.342Z,70.92
2023-04-08T04:02:12.414Z,71.01
2023-04-08T04:03:12.438Z,70.92
2023-04-08T04:04:12.477Z,71.14
2023-04-08T04:05:12.276Z,71.14
2023-04-08T04:06:12.259Z,71.14
2023-04-08T04:07:12.247Z,71.14
2023-04-08T04:08:12.226Z,71.43
2023-04-08T04:09:12.208Z,71.04
2023-04-08T04:10:12.202Z,71.23
2023-04-08T04:11:12.175Z,70.86
2023-04-08T04:12:12.174Z,70.76
2023-04-08T04:13:12.142Z,70.76
2023-04-08T04:14:12.128Z,70.76
2023-04-08T04:15:12.108Z,70.86
2023-04-08T04:16:12.128Z,70.73
2023-04-08T04:17:12.073Z,71.04
2023-04-08T04:18:12.102Z,71.14
2023-04-08T04:19:12.044Z,70.95
2023-04-08T04:20:12.033Z,71.14
2023-04-08T04:21:12.007Z,71.33
2023-04-08T04:22:11.993Z,70.95
2023-04-08T04:23:11.989Z,70.76
2023-04-08T04:24:11.958Z,70.76
2023-04-08T04:25:11.956Z,71.14
2023-04-08T04:26:11.941Z,70.86
2023-04-08T04:27:11.920Z,70.67
2023-04-08T04:28:11.892Z,70.86
2023-04-08T04:29:11.884Z,70.86
2023-04-08T04:30:11.867Z,70.76
2023-04-08T04:31:11.862Z,70.95
2023-04-08T04:32:11.831Z,71.04
2023-04-08T04:33:11.809Z,70.95
2023-04-08T04:34:11.797Z,70.95
2023-04-08T04:35:11.777Z,70.86
2023-04-08T04:36:11.776Z,70.86
2023-04-08T04:37:11.751Z,71.04
2023-04-08T04:38:11.764Z,70.95
2023-04-08T04:39:11.725Z,70.86
2023-04-08T04:40:11.698Z,70.86
2023-04-08T04:41:11.696Z,71.14
2023-04-08T04:42:11.665Z,71.14
2023-04-08T04:43:11.659Z,70.95
2023-04-08T04:44:11.624Z,71.04
2023-04-08T04:45:11.609Z,71.23
2023-04-08T04:46:11.642Z,71.11
2023-04-08T04:47:11.578Z,70.95
2023-04-08T04:48:11.572Z,70.92
2023-04-08T04:49:11.549Z,70.82
2023-04-08T04:50:11.526Z,71.01
2023-04-08T04:51:11.527Z,71.01
2023-04-08T04:52:11.507Z,71.01
2023-04-08T04:53:11.479Z,71.11
2023-04-08T04:54:11.457Z,71.39
2023-04-08T04:55:11.444Z,71.11
2023-04-08T04:56:11.508Z,71.20
2023-04-08T04:57:11.416Z,70.63
2023-04-08T04:58:11.393Z,70.73
2023-04-08T04:59:11.376Z,70.92
2023-04-08T05:00:11.359Z,70.82
2023-04-08T05:01:11.365Z,71.01
2023-04-08T05:02:11.389Z,70.92
2023-04-08T05:03:11.448Z,71.14
2023-04-08T05:04:11.296Z,71.14
2023-04-08T05:05:11.335Z,71.23
2023-04-08T05:06:11.271Z,71.04
2023-04-08T05:07:11.260Z,71.04
2023-04-08T05:08:11.232Z,71.23
2023-04-08T05:09:11.254Z,70.86
2023-04-08T05:10:11.207Z,70.95
2023-04-08T05:11:11.189Z,71.04
2023-04-08T05:12:11.164Z,70.76
2023-04-08T05:13:11.166Z,71.20
2023-04-08T05:14:11.131Z,71.01
2023-04-08T05:15:11.117Z,71.04
2023-04-08T05:16:11.143Z,71.14
2023-04-08T05:17:11.080Z,70.63
2023-04-08T05:18:11.097Z,70.95
2023-04-08T05:19:11.050Z,70.86
2023-04-08T05:20:11.042Z,71.14
2023-04-08T05:21:11.016Z,71.23
2023-04-08T05:22:11.003Z,70.95
2023-04-08T05:23:10.994Z,70.82
2023-04-08T05:24:10.970Z,70.86
2023-04-08T05:25:10.954Z,70.76
2023-04-08T05:26:10.949Z,70.86
2023-04-08T05:27:10.919Z,70.86
2023-04-08T05:28:10.904Z,70.86
2023-04-08T05:29:10.911Z,71.14
2023-04-08T05:30:10.866Z,70.57
2023-04-08T05:31:10.879Z,70.67
2023-04-08T05:32:10.847Z,71.04
2023-04-08T05:33:10.836Z,70.86
2023-04-08T05:34:10.800Z,70.48
2023-04-08T05:35:10.800Z,70.67
2023-04-08T05:36:10.769Z,70.76
2023-04-08T05:37:10.753Z,70.76
2023-04-08T05:38:10.733Z,70.48
2023-04-08T05:39:10.723Z,70.67
2023-04-08T05:40:10.736Z,70.67
2023-04-08T05:41:10.686Z,70.86
2023-04-08T05:42:10.668Z,70.86
2023-04-08T05:43:10.668Z,70.57
2023-04-08T05:44:10.637Z,70.57
2023-04-08T05:45:10.624Z,70.76
2023-04-08T05:46:10.618Z,70.57
2023-04-08T05:47:10.617Z,70.10
2023-04-08T05:48:10.634Z,70.67
2023-04-08T05:49:10.564Z,70.48
2023-04-08T05:50:10.538Z,70.38
2023-04-08T05:51:10.520Z,70.29
2023-04-08T05:52:10.512Z,70.48
2023-04-08T05:53:10.488Z,70.38
2023-04-08T05:54:10.475Z,70.19
2023-04-08T05:55:10.453Z,70.38
2023-04-08T05:56:10.452Z,70.42
2023-04-08T05:57:10.651Z,70.04
2023-04-08T05:58:10.403Z,70.42
2023-04-08T05:59:10.395Z,70.23
2023-04-08T06:00:10.369Z,70.42
2023-04-08T06:01:10.352Z,70.32
2023-04-08T06:02:10.368Z,70.04
2023-04-08T06:03:10.502Z,70.04
2023-04-08T06:04:10.335Z,70.13
2023-04-08T06:05:10.299Z,70.32
2023-04-08T06:06:10.263Z,70.32
2023-04-08T06:07:10.288Z,70.32
2023-04-08T06:08:10.259Z,70.42
2023-04-08T06:09:10.219Z,69.66
2023-04-08T06:10:10.195Z,70.23
2023-04-08T06:11:10.183Z,69.75
2023-04-08T06:12:10.165Z,69.85
2023-04-08T06:13:10.144Z,69.85
2023-04-08T06:14:10.129Z,70.04
2023-04-08T06:15:10.113Z,69.75
2023-04-08T06:16:10.134Z,69.94
2023-04-08T06:17:10.080Z,69.66
2023-04-08T06:18:10.077Z,69.75
2023-04-08T06:19:10.046Z,69.46
2023-04-08T06:20:10.106Z,69.46
2023-04-08T06:21:10.025Z,69.46
2023-04-08T06:22:10.007Z,69.56
2023-04-08T06:23:09.979Z,69.37
2023-04-08T06:24:09.962Z,69.56
2023-04-08T06:25:09.967Z,69.75
2023-04-08T06:26:09.947Z,69.50
2023-04-08T06:27:09.911Z,69.50
2023-04-08T06:28:09.896Z,69.56
2023-04-08T06:29:09.882Z,69.41
2023-04-08T06:30:09.867Z,69.60
2023-04-08T06:31:09.846Z,69.50
2023-04-08T06:32:09.926Z,69.50
2023-04-08T06:33:09.826Z,69.41
2023-04-08T06:34:09.801Z,69.41
2023-04-08T06:35:09.781Z,69.31
2023-04-08T06:36:09.834Z,69.12
2023-04-08T06:37:09.749Z,68.74
2023-04-08T06:38:09.731Z,69.02
2023-04-08T06:39:09.734Z,68.96
2023-04-08T06:40:09.701Z,68.77
2023-04-08T06:41:17.390Z,68.49
2023-04-08T06:43:15.132Z,68.68
2023-04-08T06:44:15.088Z,68.77
2023-04-08T06:45:15.069Z,68.40
2023-04-08T06:46:15.111Z,67.76
2023-04-08T06:47:15.037Z,67.86
2023-04-08T06:48:15.019Z,68.27
2023-04-08T06:49:15.011Z,68.18
2023-04-08T06:50:14.989Z,67.70
2023-04-08T06:51:14.973Z,67.45
2023-04-08T06:52:15.331Z,67.10
2023-04-08T06:53:14.938Z,66.82
2023-04-08T06:54:14.924Z,66.44
2023-04-08T06:55:14.905Z,65.99
2023-04-08T06:56:14.894Z,66.47
2023-04-08T06:57:14.873Z,65.89
2023-04-08T06:58:14.864Z,66.09
2023-04-08T06:59:14.855Z,65.26
2023-04-08T07:00:14.826Z,65.70
2023-04-08T07:01:14.850Z,65.52
2023-04-08T07:02:14.816Z,65.36
2023-04-08T07:03:14.922Z,65.55
2023-04-08T07:04:14.797Z,64.97
2023-04-08T07:05:14.760Z,65.17
2023-04-08T07:06:14.738Z,64.88
2023-04-08T07:07:14.730Z,64.97
2023-04-08T07:08:14.717Z,64.81
2023-04-08T07:09:14.698Z,64.53
2023-04-08T07:10:14.697Z,63.86
2023-04-08T07:11:14.656Z,63.76
2023-04-08T07:12:14.676Z,63.86
2023-04-08T07:13:14.627Z,63.86
2023-04-08T07:14:14.619Z,64.09
2023-04-08T07:15:14.598Z,63.23
2023-04-08T07:16:14.625Z,63.51
2023-04-08T07:17:14.665Z,63.03
2023-04-08T07:18:14.557Z,63.32
2023-04-08T07:19:14.552Z,62.87
2023-04-08T07:20:14.517Z,62.78
2023-04-08T07:21:14.506Z,62.49
2023-04-08T07:22:14.494Z,62.33
2023-04-08T07:23:14.498Z,61.95
2023-04-08T07:24:14.462Z,61.57
2023-04-08T07:25:14.451Z,61.85
2023-04-08T07:26:14.469Z,61.95
2023-04-08T07:27:14.415Z,62.14
2023-04-08T07:28:14.404Z,61.95
2023-04-08T07:29:14.388Z,62.04
2023-04-08T07:30:14.369Z,62.14
2023-04-08T07:31:14.421Z,62.30
2023-04-08T07:32:14.344Z,62.49
2023-04-08T07:33:14.337Z,62.78
2023-04-08T07:34:14.328Z,62.97
2023-04-08T07:35:14.306Z,62.90
2023-04-08T07:36:14.300Z,62.43
2023-04-08T07:37:14.266Z,62.24
2023-04-08T07:38:14.275Z,62.17
2023-04-08T07:39:14.245Z,61.88
2023-04-08T07:40:14.224Z,61.98
2023-04-08T07:41:14.215Z,61.79
2023-04-08T07:42:14.196Z,61.72
2023-04-08T07:43:14.185Z,61.44
2023-04-08T07:44:14.167Z,61.54
2023-04-08T07:45:14.153Z,61.51
2023-04-08T07:46:14.174Z,61.60
2023-04-08T07:47:14.129Z,61.98
2023-04-08T07:48:14.113Z,62.17
2023-04-08T07:49:14.093Z,62.17
2023-04-08T07:50:14.100Z,62.37
2023-04-08T07:51:14.080Z,62.27
2023-04-08T07:52:14.065Z,61.82
2023-04-08T07:53:14.061Z,61.08
2023-04-08T07:54:14.030Z,60.54
2023-04-08T07:55:14.034Z,59.97
2023-04-08T07:56:14.024Z,59.13
2023-04-08T07:57:13.989Z,58.59
2023-04-08T07:58:13.976Z,57.56
2023-04-08T07:59:13.960Z,57.56
2023-04-08T08:00:13.943Z,57.28
2023-04-08T08:01:13.929Z,57.28
2023-04-08T08:02:14.019Z,57.63
2023-04-08T08:03:14.019Z,57.63
2023-04-08T08:04:14.092Z,58.30
2023-04-08T08:05:13.907Z,58.11
2023-04-08T08:06:13.866Z,57.92
2023-04-08T08:07:13.848Z,57.92
2023-04-08T08:08:13.836Z,57.63
2023-04-08T08:09:13.819Z,57.60
2023-04-08T08:10:13.815Z,57.98
2023-04-08T08:11:13.822Z,57.70
2023-04-08T08:12:13.782Z,57.53
2023-04-08T08:13:13.773Z,57.28
2023-04-08T08:14:13.798Z,56.51
2023-04-08T08:15:13.743Z,56.34
2023-04-08T08:16:13.793Z,55.77
2023-04-08T08:17:13.716Z,55.29
2023-04-08T08:18:13.716Z,55.10
2023-04-08T08:19:13.705Z,55.35
2023-04-08T08:20:13.692Z,55.90
2023-04-08T08:21:13.664Z,56.64
2023-04-08T08:22:13.662Z,57.19
2023-04-08T08:23:13.640Z,57.57
2023-04-08T08:24:13.636Z,57.83
2023-04-08T08:25:13.621Z,59.05
2023-04-08T08:26:13.600Z,59.23
2023-04-08T08:27:13.589Z,58.66
2023-04-08T08:28:13.574Z,59.23
2023-04-08T08:29:13.561Z,59.14
2023-04-08T08:30:13.546Z,58.86
2023-04-08T08:31:13.562Z,58.86
2023-04-08T08:32:13.515Z,58.86
2023-04-08T08:33:13.507Z,58.28
2023-04-08T08:34:13.496Z,58.69
2023-04-08T08:35:13.510Z,58.22
2023-04-08T08:36:13.514Z,57.86
2023-04-08T08:37:13.450Z,57.48
2023-04-08T08:38:13.437Z,57.67
2023-04-08T08:39:13.437Z,57.28
2023-04-08T08:40:13.409Z,57.09
2023-04-08T08:41:13.398Z,57.67
2023-04-08T08:42:13.381Z,57.38
2023-04-08T08:43:13.366Z,57.19
2023-04-08T08:44:13.366Z,57.28
2023-04-08T08:45:13.340Z,57.19
2023-04-08T08:46:13.341Z,57.21
2023-04-08T08:47:13.338Z,57.21
2023-04-08T08:48:13.316Z,56.54
2023-04-08T08:49:13.313Z,56.35
2023-04-08T08:50:13.268Z,56.26
2023-04-08T08:51:13.280Z,56.16
2023-04-08T08:52:13.244Z,56.16
2023-04-08T08:53:13.234Z,56.54
2023-04-08T08:54:13.213Z,56.52
2023-04-08T08:55:32.452Z,56.23
2023-04-08T08:56:18.273Z,57.09
2023-04-08T08:57:13.185Z,57.35
2023-04-08T08:58:13.172Z,57.54
2023-04-08T08:59:13.151Z,57.80
2023-04-08T09:00:13.132Z,57.80
2023-04-08T09:01:13.126Z,58.63
2023-04-08T09:02:13.162Z,58.83
2023-04-08T09:03:13.231Z,59.20
2023-04-08T09:04:13.239Z,58.73
2023-04-08T09:05:13.168Z,59.01
2023-04-08T09:06:13.052Z,58.83
2023-04-08T09:07:13.051Z,59.11
2023-04-08T09:08:13.024Z,58.92
2023-04-08T09:09:13.013Z,58.63
2023-04-08T09:10:13.005Z,58.34
2023-04-08T09:11:12.987Z,58.63
2023-04-08T09:12:12.969Z,58.63
2023-04-08T09:13:12.956Z,58.92
2023-04-08T09:14:12.941Z,59.01
2023-04-08T09:15:12.945Z,58.89
2023-04-08T09:16:12.957Z,58.98
2023-04-08T09:17:12.905Z,58.98
2023-04-08T09:18:12.888Z,58.98
2023-04-08T09:19:12.913Z,59.08
2023-04-08T09:20:12.866Z,58.70
2023-04-08T09:21:12.846Z,59.37
2023-04-08T09:22:12.832Z,59.56
2023-04-08T09:23:12.826Z,59.47
2023-04-08T09:24:12.805Z,58.80
2023-04-08T09:25:13.214Z,59.08
2023-04-08T09:26:12.781Z,58.98
2023-04-08T09:27:12.766Z,59.08
2023-04-08T09:28:12.786Z,58.80
2023-04-08T09:29:25.597Z,58.83
2023-04-08T09:30:12.992Z,59.11
2023-04-08T09:31:12.797Z,58.92
2023-04-08T09:32:12.693Z,58.83
2023-04-08T09:33:12.683Z,58.73
2023-04-08T09:34:12.679Z,59.08
2023-04-08T09:35:12.679Z,59.18
2023-04-08T09:36:12.682Z,58.98
2023-04-08T09:37:12.627Z,59.15
2023-04-08T09:38:12.615Z,59.34
2023-04-08T09:39:12.641Z,59.34
2023-04-08T09:40:14.050Z,59.44
2023-04-08T09:41:12.578Z,59.34
2023-04-08T09:42:12.555Z,58.95
2023-04-08T09:43:12.574Z,59.08
2023-04-08T09:44:12.537Z,58.80
2023-04-08T09:45:12.517Z,59.18
2023-04-08T09:46:12.579Z,58.76
2023-04-08T09:47:12.507Z,58.98
2023-04-08T09:49:12.461Z,59.18
2023-04-08T09:50:12.501Z,59.18
2023-04-08T09:51:12.429Z,58.89
2023-04-08T09:52:12.414Z,58.54
2023-04-08T09:53:12.405Z,58.54
2023-04-08T09:54:12.388Z,57.99
2023-04-08T09:55:12.411Z,57.42
2023-04-08T09:56:12.362Z,57.32
2023-04-08T09:57:12.348Z,57.13
2023-04-08T09:58:12.334Z,57.35
2023-04-08T09:59:12.327Z,57.35
2023-04-08T10:00:12.306Z,57.09
2023-04-08T10:01:12.328Z,56.71
2023-04-08T10:02:12.405Z,56.52
2023-04-08T10:03:12.436Z,56.13
2023-04-08T10:04:12.322Z,56.04
2023-04-08T10:05:12.288Z,56.23
2023-04-08T10:06:12.232Z,56.42
2023-04-08T10:07:12.237Z,56.39
2023-04-08T10:08:12.194Z,56.42
2023-04-08T10:09:12.178Z,56.42
2023-04-08T10:10:12.177Z,56.52
2023-04-08T10:11:12.167Z,56.23
2023-04-08T10:12:12.141Z,56.52
2023-04-08T10:13:12.141Z,56.74
2023-04-08T10:14:12.111Z,55.90
2023-04-08T10:15:12.105Z,55.16
2023-04-08T10:16:12.107Z,54.52
2023-04-08T10:17:12.075Z,53.68
2023-04-08T10:18:12.058Z,53.23
2023-04-08T10:19:12.052Z,52.75
2023-04-08T10:20:12.053Z,52.29
2023-04-08T10:21:12.026Z,51.91
2023-04-08T10:22:12.016Z,51.74
2023-04-08T10:23:12.008Z,52.03
2023-04-08T10:24:12.021Z,52.00
2023-04-08T10:25:11.970Z,51.91
2023-04-08T10:26:11.955Z,52.00
2023-04-08T10:27:11.963Z,52.29
2023-04-08T10:28:12.094Z,52.29
2023-04-08T10:29:11.920Z,52.94
2023-04-08T10:30:11.904Z,52.84
2023-04-08T10:31:11.891Z,52.65
2023-04-08T10:32:11.910Z,53.23
2023-04-08T10:33:11.869Z,53.23
2023-04-08T10:34:11.855Z,53.23
2023-04-08T10:35:11.838Z,53.13
2023-04-08T10:36:11.956Z,52.87
2023-04-08T10:37:11.834Z,52.58
2023-04-08T10:38:11.797Z,51.96
2023-04-08T10:39:11.785Z,51.19
2023-04-08T10:40:11.772Z,51.31
2023-04-08T10:41:11.790Z,50.78
2023-04-08T10:42:11.746Z,49.84
2023-04-08T10:43:11.751Z,49.10
2023-04-08T10:44:11.718Z,48.44
2023-04-08T10:45:11.705Z,48.35
2023-04-08T10:46:11.928Z,47.99
2023-04-08T10:47:11.681Z,47.77
2023-04-08T10:48:11.668Z,48.06
2023-04-08T10:49:11.659Z,48.18
2023-04-08T10:50:11.698Z,47.70
2023-04-08T10:51:11.638Z,47.60
2023-04-08T10:52:11.623Z,47.31
2023-04-08T10:53:11.622Z,47.67
2023-04-08T10:54:11.599Z,47.77
2023-04-08T10:55:11.590Z,48.33
2023-04-08T10:56:11.584Z,49.17
2023-04-08T10:57:11.566Z,49.63
2023-04-08T10:58:11.560Z,49.46
2023-04-08T10:59:11.541Z,49.17
2023-04-08T11:00:11.526Z,48.64
2023-04-08T11:01:11.566Z,47.55
2023-04-08T11:02:11.648Z,46.17
2023-04-08T11:03:13.032Z,44.86
2023-04-08T11:04:11.569Z,43.89
2023-04-08T11:05:11.475Z,44.01
2023-04-08T11:06:11.465Z,43.74
2023-04-08T11:07:11.454Z,44.07
2023-04-08T11:08:11.443Z,42.43
2023-04-08T11:09:11.441Z,40.29
2023-04-08T11:10:11.419Z,38.51
2023-04-08T11:11:11.587Z,37.62
2023-04-08T11:12:11.408Z,38.96
2023-04-08T11:13:11.396Z,39.33
2023-04-08T11:14:11.383Z,40.19
2023-04-08T11:15:11.381Z,39.90
2023-04-08T11:16:18.258Z,39.78
2023-04-08T11:17:11.355Z,38.10
2023-04-08T11:18:11.367Z,36.58
2023-04-08T11:19:11.336Z,36.47
2023-04-08T11:20:11.344Z,36.74
2023-04-08T11:21:11.336Z,36.94
2023-04-08T11:22:11.317Z,36.94
2023-04-08T11:23:11.306Z,37.16
2023-04-08T11:24:11.296Z,38.84
2023-04-08T11:25:11.294Z,40.06
2023-04-08T11:26:11.352Z,41.09
2023-04-08T11:27:11.284Z,41.73
2023-04-08T11:28:11.267Z,42.60
2023-04-08T11:29:11.280Z,42.33
2023-04-08T11:30:11.280Z,41.22
2023-04-08T11:31:11.341Z,39.29
2023-04-08T11:32:11.245Z,36.15
2023-04-08T11:33:11.342Z,33.29
2023-04-08T11:34:11.250Z,32.48
2023-04-08T11:35:11.211Z,33.67
2023-04-08T11:36:11.241Z,35.08
2023-04-08T11:37:11.218Z,36.57
2023-04-08T11:38:11.224Z,37.50
2023-04-08T11:39:11.185Z,38.61
2023-04-08T11:40:11.188Z,40.01
2023-04-08T11:41:11.176Z,40.72
2023-04-08T11:42:11.164Z,41.92
2023-04-08T11:43:11.189Z,43.04
2023-04-08T11:44:11.150Z,42.75
2023-04-08T11:45:11.140Z,43.13
2023-04-08T11:46:11.205Z,43.02
2023-04-08T11:47:11.256Z,43.37
2023-04-08T11:48:11.163Z,43.65
2023-04-08T11:49:11.107Z,43.95
2023-04-08T11:50:11.099Z,43.21
2023-04-08T11:51:11.098Z,42.61
2023-04-08T11:52:11.088Z,39.02
2023-04-08T11:53:11.097Z,36.41
2023-04-08T11:54:11.138Z,36.29
2023-04-08T11:55:11.061Z,36.57
2023-04-08T11:56:11.087Z,37.07
2023-04-08T11:57:11.053Z,36.43
2023-04-08T11:58:11.048Z,35.24
2023-04-08T11:59:11.057Z,34.86
2023-04-08T12:00:11.204Z,33.89
2023-04-08T12:01:11.021Z,34.65
2023-04-08T12:02:11.066Z,34.54
2023-04-08T12:03:11.281Z,34.97
2023-04-08T12:04:11.170Z,36.11
2023-04-08T12:05:11.050Z,36.66
2023-04-08T12:06:10.992Z,37.00
2023-04-08T12:07:10.985Z,38.60
2023-04-08T12:08:10.960Z,39.45
2023-04-08T12:09:10.958Z,39.72
2023-04-08T12:10:11.014Z,40.01
2023-04-08T12:11:19.694Z,39.82
2023-04-08T12:12:10.933Z,39.88
2023-04-08T12:13:10.924Z,40.34
2023-04-08T12:14:10.920Z,40.21
2023-04-08T12:15:10.908Z,38.75
2023-04-08T12:16:10.945Z,38.15
2023-04-08T12:17:10.900Z,38.91
2023-04-08T12:18:10.929Z,39.94
2023-04-08T12:19:10.900Z,40.00
2023-04-08T12:20:10.929Z,37.27
2023-04-08T12:21:10.862Z,35.63
2023-04-08T12:22:10.862Z,36.00
2023-04-08T12:23:10.850Z,36.46
2023-04-08T12:24:10.839Z,37.47
2023-04-08T12:25:10.853Z,38.89
2023-04-08T12:26:10.817Z,39.36
2023-04-08T12:27:10.808Z,40.09
2023-04-08T12:28:10.804Z,40.65
2023-04-08T12:29:10.802Z,41.11
2023-04-08T12:30:10.839Z,41.48
2023-04-08T12:31:10.912Z,42.14
2023-04-08T12:32:10.800Z,42.31
2023-04-08T12:33:10.761Z,43.08
2023-04-08T12:34:10.752Z,42.99
2023-04-08T12:35:10.744Z,43.16
2023-04-08T12:36:13.418Z,43.08
2023-04-08T12:37:10.732Z,42.79
2023-04-08T12:38:10.764Z,42.43
2023-04-08T12:39:10.712Z,41.85
2023-04-08T12:40:10.728Z,41.09
2023-04-08T12:41:10.696Z,40.53
2023-04-08T12:42:10.701Z,39.97
2023-04-08T12:43:10.674Z,38.79
2023-04-08T12:44:10.671Z,36.89
2023-04-08T12:45:10.664Z,36.79
2023-04-08T12:46:10.669Z,38.48
2023-04-08T12:47:10.729Z,39.90
2023-04-08T12:48:10.674Z,41.50
2023-04-08T12:49:10.638Z,42.47
2023-04-08T12:50:10.767Z,43.05
2023-04-08T12:51:10.636Z,43.05
2023-04-08T12:52:10.603Z,43.13
2023-04-08T12:53:10.582Z,44.02
2023-04-08T12:54:10.597Z,43.71